sensor_id;sensor_type;location;lat;lon;timestamp;P1;durP1;ratioP1;P2;durP2;ratioP2
11731;SDS011;5922;53.734;10.258;2023-02-04T00:01:07;1.30;;;1.00;;
11731;SDS011;5922;53.734;10.258;2023-02-04T00:03:34;2.50;;;1.20;;
11731;SDS011;5922;53.734;10.258;2023-02-04T00:06:02;3.47;;;1.17;;
11731;SDS011;5922;53.734;10.258;2023-02-04T00:08:29;2.77;;;1.53;;
11731;SDS011;5922;53.734;10.258;2023-02-04T00:10:57;1.20;;;1.10;;
11731;SDS011;5922;53.734;10.258;2023-02-04T00:13:25;1.60;;;1.40;;
11731;SDS011;5922;53.734;10.258;2023-02-04T00:15:52;1.97;;;1.33;;
11731;SDS011;5922;53.734;10.258;2023-02-04T00:18:21;2.27;;;1.20;;
11731;SDS011;5922;53.734;10.258;2023-02-04T00:20:49;3.43;;;1.30;;
11731;SDS011;5922;53.734;10.258;2023-02-04T00:23:16;3.57;;;1.20;;
11731;SDS011;5922;53.734;10.258;2023-02-04T00:25:43;1.03;;;1.00;;
11731;SDS011;5922;53.734;10.258;2023-02-04T00:28:11;2.67;;;1.50;;
11731;SDS011;5922;53.734;10.258;2023-02-04T00:30:38;2.67;;;1.23;;
11731;SDS011;5922;53.734;10.258;2023-02-04T00:33:06;2.77;;;1.30;;
11731;SDS011;5922;53.734;10.258;2023-02-04T00:35:35;2.37;;;1.27;;
11731;SDS011;5922;53.734;10.258;2023-02-04T00:38:02;1.43;;;1.20;;
11731;SDS011;5922;53.734;10.258;2023-02-04T00:40:30;3.13;;;1.57;;
11731;SDS011;5922;53.734;10.258;2023-02-04T00:42:58;1.67;;;1.20;;
11731;SDS011;5922;53.734;10.258;2023-02-04T00:45:25;3.97;;;1.30;;
11731;SDS011;5922;53.734;10.258;2023-02-04T00:47:52;2.10;;;1.00;;
11731;SDS011;5922;53.734;10.258;2023-02-04T00:50:21;1.57;;;1.30;;
11731;SDS011;5922;53.734;10.258;2023-02-04T00:52:50;2.80;;;1.53;;
11731;SDS011;5922;53.734;10.258;2023-02-04T00:55:17;1.30;;;1.20;;
11731;SDS011;5922;53.734;10.258;2023-02-04T00:57:45;2.73;;;1.40;;
11731;SDS011;5922;53.734;10.258;2023-02-04T01:00:13;2.50;;;1.23;;
11731;SDS011;5922;53.734;10.258;2023-02-04T01:02:40;2.27;;;1.50;;
11731;SDS011;5922;53.734;10.258;2023-02-04T01:05:08;1.27;;;1.13;;
11731;SDS011;5922;53.734;10.258;2023-02-04T01:07:35;2.37;;;1.43;;
11731;SDS011;5922;53.734;10.258;2023-02-04T01:10:04;1.73;;;1.27;;
11731;SDS011;5922;53.734;10.258;2023-02-04T01:12:32;3.33;;;1.57;;
11731;SDS011;5922;53.734;10.258;2023-02-04T01:14:59;2.73;;;1.37;;
11731;SDS011;5922;53.734;10.258;2023-02-04T01:17:26;2.97;;;1.53;;
11731;SDS011;5922;53.734;10.258;2023-02-04T01:19:54;2.90;;;1.57;;
11731;SDS011;5922;53.734;10.258;2023-02-04T01:22:21;2.00;;;1.60;;
11731;SDS011;5922;53.734;10.258;2023-02-04T01:24:49;1.93;;;1.27;;
11731;SDS011;5922;53.734;10.258;2023-02-04T01:42:39;3.53;;;1.30;;
11731;SDS011;5922;53.734;10.258;2023-02-04T01:57:43;1.70;;;1.60;;
11731;SDS011;5922;53.734;10.258;2023-02-04T02:00:11;2.17;;;1.63;;
11731;SDS011;5922;53.734;10.258;2023-02-04T02:02:41;4.10;;;1.50;;
11731;SDS011;5922;53.734;10.258;2023-02-04T02:05:09;3.10;;;1.43;;
11731;SDS011;5922;53.734;10.258;2023-02-04T02:07:36;2.20;;;1.20;;
11731;SDS011;5922;53.734;10.258;2023-02-04T02:10:04;3.03;;;1.40;;
11731;SDS011;5922;53.734;10.258;2023-02-04T02:12:32;2.77;;;1.60;;
11731;SDS011;5922;53.734;10.258;2023-02-04T02:15:01;2.43;;;1.60;;
11731;SDS011;5922;53.734;10.258;2023-02-04T02:17:28;1.60;;;1.40;;
11731;SDS011;5922;53.734;10.258;2023-02-04T02:19:57;1.50;;;1.40;;
11731;SDS011;5922;53.734;10.258;2023-02-04T02:22:26;2.80;;;1.40;;
11731;SDS011;5922;53.734;10.258;2023-02-04T02:24:56;1.57;;;1.47;;
11731;SDS011;5922;53.734;10.258;2023-02-04T02:27:23;2.23;;;1.60;;
11731;SDS011;5922;53.734;10.258;2023-02-04T02:29:50;1.70;;;1.40;;
11731;SDS011;5922;53.734;10.258;2023-02-04T02:32:17;2.47;;;1.50;;
11731;SDS011;5922;53.734;10.258;2023-02-04T02:34:45;2.20;;;1.60;;
11731;SDS011;5922;53.734;10.258;2023-02-04T02:37:12;3.23;;;1.40;;
11731;SDS011;5922;53.734;10.258;2023-02-04T02:39:40;3.70;;;1.67;;
11731;SDS011;5922;53.734;10.258;2023-02-04T02:42:10;3.33;;;1.70;;
11731;SDS011;5922;53.734;10.258;2023-02-04T02:44:40;2.50;;;1.40;;
11731;SDS011;5922;53.734;10.258;2023-02-04T02:47:08;2.10;;;1.30;;
11731;SDS011;5922;53.734;10.258;2023-02-04T02:49:38;2.70;;;1.40;;
11731;SDS011;5922;53.734;10.258;2023-02-04T02:52:05;3.47;;;1.63;;
11731;SDS011;5922;53.734;10.258;2023-02-04T02:54:33;1.50;;;1.40;;
11731;SDS011;5922;53.734;10.258;2023-02-04T02:57:00;2.17;;;1.40;;
11731;SDS011;5922;53.734;10.258;2023-02-04T02:59:29;2.90;;;1.40;;
11731;SDS011;5922;53.734;10.258;2023-02-04T03:01:57;1.40;;;1.30;;
11731;SDS011;5922;53.734;10.258;2023-02-04T03:04:25;1.77;;;1.50;;
11731;SDS011;5922;53.734;10.258;2023-02-04T03:06:53;1.77;;;1.27;;
11731;SDS011;5922;53.734;10.258;2023-02-04T03:09:21;2.10;;;1.30;;
11731;SDS011;5922;53.734;10.258;2023-02-04T03:11:49;3.17;;;1.50;;
11731;SDS011;5922;53.734;10.258;2023-02-04T03:14:16;1.63;;;1.53;;
11731;SDS011;5922;53.734;10.258;2023-02-04T03:16:46;2.83;;;1.30;;
11731;SDS011;5922;53.734;10.258;2023-02-04T03:19:14;1.57;;;1.47;;
11731;SDS011;5922;53.734;10.258;2023-02-04T03:21:41;1.87;;;1.50;;
11731;SDS011;5922;53.734;10.258;2023-02-04T03:24:08;3.13;;;1.53;;
11731;SDS011;5922;53.734;10.258;2023-02-04T03:26:35;3.37;;;1.70;;
11731;SDS011;5922;53.734;10.258;2023-02-04T03:29:05;1.93;;;1.60;;
11731;SDS011;5922;53.734;10.258;2023-02-04T03:31:32;2.60;;;1.57;;
11731;SDS011;5922;53.734;10.258;2023-02-04T03:34:01;2.37;;;1.67;;
11731;SDS011;5922;53.734;10.258;2023-02-04T03:36:28;3.63;;;1.63;;
11731;SDS011;5922;53.734;10.258;2023-02-04T03:38:55;2.53;;;1.70;;
11731;SDS011;5922;53.734;10.258;2023-02-04T03:41:22;2.53;;;1.60;;
11731;SDS011;5922;53.734;10.258;2023-02-04T03:43:50;2.33;;;1.50;;
11731;SDS011;5922;53.734;10.258;2023-02-04T03:46:17;3.13;;;1.67;;
11731;SDS011;5922;53.734;10.258;2023-02-04T03:48:47;2.60;;;1.73;;
11731;SDS011;5922;53.734;10.258;2023-02-04T03:51:16;5.20;;;1.80;;
11731;SDS011;5922;53.734;10.258;2023-02-04T03:53:43;3.80;;;1.60;;
11731;SDS011;5922;53.734;10.258;2023-02-04T03:56:11;3.37;;;1.60;;
11731;SDS011;5922;53.734;10.258;2023-02-04T03:58:38;2.37;;;1.50;;
11731;SDS011;5922;53.734;10.258;2023-02-04T04:01:05;2.70;;;1.77;;
11731;SDS011;5922;53.734;10.258;2023-02-04T04:03:32;1.73;;;1.50;;
11731;SDS011;5922;53.734;10.258;2023-02-04T04:05:59;1.63;;;1.50;;
11731;SDS011;5922;53.734;10.258;2023-02-04T04:08:30;5.33;;;2.00;;
11731;SDS011;5922;53.734;10.258;2023-02-04T04:10:58;2.67;;;1.77;;
11731;SDS011;5922;53.734;10.258;2023-02-04T04:13:25;3.13;;;2.10;;
11731;SDS011;5922;53.734;10.258;2023-02-04T04:15:52;1.60;;;1.50;;
11731;SDS011;5922;53.734;10.258;2023-02-04T04:18:20;4.00;;;1.73;;
11731;SDS011;5922;53.734;10.258;2023-02-04T04:20:47;3.30;;;1.73;;
11731;SDS011;5922;53.734;10.258;2023-02-04T04:23:14;2.23;;;1.70;;
11731;SDS011;5922;53.734;10.258;2023-02-04T04:25:43;2.73;;;1.90;;
11731;SDS011;5922;53.734;10.258;2023-02-04T04:28:10;1.67;;;1.57;;
11731;SDS011;5922;53.734;10.258;2023-02-04T04:30:37;2.27;;;1.60;;
11731;SDS011;5922;53.734;10.258;2023-02-04T04:33:05;1.60;;;1.50;;
11731;SDS011;5922;53.734;10.258;2023-02-04T04:35:32;2.60;;;1.87;;
11731;SDS011;5922;53.734;10.258;2023-02-04T04:38:00;3.23;;;1.70;;
11731;SDS011;5922;53.734;10.258;2023-02-04T04:40:27;1.80;;;1.70;;
11731;SDS011;5922;53.734;10.258;2023-02-04T04:42:55;3.17;;;2.10;;
11731;SDS011;5922;53.734;10.258;2023-02-04T04:45:23;2.70;;;1.60;;
11731;SDS011;5922;53.734;10.258;2023-02-04T04:47:50;3.30;;;1.90;;
11731;SDS011;5922;53.734;10.258;2023-02-04T04:50:17;1.90;;;1.70;;
11731;SDS011;5922;53.734;10.258;2023-02-04T04:52:45;4.47;;;1.70;;
11731;SDS011;5922;53.734;10.258;2023-02-04T04:55:12;2.07;;;1.70;;
11731;SDS011;5922;53.734;10.258;2023-02-04T04:57:39;1.70;;;1.60;;
11731;SDS011;5922;53.734;10.258;2023-02-04T05:00:09;2.80;;;1.50;;
11731;SDS011;5922;53.734;10.258;2023-02-04T05:02:37;1.60;;;1.50;;
11731;SDS011;5922;53.734;10.258;2023-02-04T05:05:05;3.50;;;1.50;;
11731;SDS011;5922;53.734;10.258;2023-02-04T05:07:32;2.57;;;1.70;;
11731;SDS011;5922;53.734;10.258;2023-02-04T05:09:59;2.63;;;1.87;;
11731;SDS011;5922;53.734;10.258;2023-02-04T05:12:26;2.23;;;1.70;;
11731;SDS011;5922;53.734;10.258;2023-02-04T05:14:54;3.00;;;1.70;;
11731;SDS011;5922;53.734;10.258;2023-02-04T05:17:22;2.70;;;1.80;;
11731;SDS011;5922;53.734;10.258;2023-02-04T05:19:50;3.17;;;1.90;;
11731;SDS011;5922;53.734;10.258;2023-02-04T05:22:17;2.00;;;1.80;;
11731;SDS011;5922;53.734;10.258;2023-02-04T05:24:44;1.97;;;1.70;;
11731;SDS011;5922;53.734;10.258;2023-02-04T05:27:11;3.13;;;2.00;;
11731;SDS011;5922;53.734;10.258;2023-02-04T05:29:39;1.70;;;1.60;;
11731;SDS011;5922;53.734;10.258;2023-02-04T05:32:10;1.90;;;1.73;;
11731;SDS011;5922;53.734;10.258;2023-02-04T05:34:39;4.23;;;2.20;;
11731;SDS011;5922;53.734;10.258;2023-02-04T05:37:06;2.47;;;1.83;;
11731;SDS011;5922;53.734;10.258;2023-02-04T05:39:33;2.00;;;1.87;;
11731;SDS011;5922;53.734;10.258;2023-02-04T05:42:00;2.27;;;2.00;;
11731;SDS011;5922;53.734;10.258;2023-02-04T05:44:28;1.80;;;1.70;;
11731;SDS011;5922;53.734;10.258;2023-02-04T05:46:55;3.27;;;1.90;;
11731;SDS011;5922;53.734;10.258;2023-02-04T05:49:22;3.13;;;1.93;;
11731;SDS011;5922;53.734;10.258;2023-02-04T05:51:51;2.03;;;1.70;;
11731;SDS011;5922;53.734;10.258;2023-02-04T05:54:18;2.40;;;1.80;;
11731;SDS011;5922;53.734;10.258;2023-02-04T05:56:45;4.13;;;2.07;;
11731;SDS011;5922;53.734;10.258;2023-02-04T05:59:12;2.30;;;1.90;;
11731;SDS011;5922;53.734;10.258;2023-02-04T06:01:39;2.57;;;1.87;;
11731;SDS011;5922;53.734;10.258;2023-02-04T06:04:07;2.43;;;1.80;;
11731;SDS011;5922;53.734;10.258;2023-02-04T06:06:34;2.67;;;2.00;;
11731;SDS011;5922;53.734;10.258;2023-02-04T06:09:03;3.50;;;1.73;;
11731;SDS011;5922;53.734;10.258;2023-02-04T06:11:30;1.83;;;1.73;;
11731;SDS011;5922;53.734;10.258;2023-02-04T06:13:57;2.23;;;1.80;;
11731;SDS011;5922;53.734;10.258;2023-02-04T06:16:25;4.13;;;1.80;;
11731;SDS011;5922;53.734;10.258;2023-02-04T06:18:52;2.00;;;1.60;;
11731;SDS011;5922;53.734;10.258;2023-02-04T06:21:19;2.53;;;2.13;;
11731;SDS011;5922;53.734;10.258;2023-02-04T06:23:46;3.50;;;2.20;;
11731;SDS011;5922;53.734;10.258;2023-02-04T06:26:15;2.43;;;1.93;;
11731;SDS011;5922;53.734;10.258;2023-02-04T06:28:42;1.90;;;1.70;;
11731;SDS011;5922;53.734;10.258;2023-02-04T06:31:09;2.63;;;2.10;;
11731;SDS011;5922;53.734;10.258;2023-02-04T06:33:37;1.93;;;1.80;;
11731;SDS011;5922;53.734;10.258;2023-02-04T06:36:04;2.90;;;1.80;;
11731;SDS011;5922;53.734;10.258;2023-02-04T06:38:31;2.03;;;1.80;;
11731;SDS011;5922;53.734;10.258;2023-02-04T06:40:59;2.60;;;1.90;;
11731;SDS011;5922;53.734;10.258;2023-02-04T06:43:27;2.07;;;1.87;;
11731;SDS011;5922;53.734;10.258;2023-02-04T06:45:55;2.27;;;1.90;;
11731;SDS011;5922;53.734;10.258;2023-02-04T06:48:22;1.80;;;1.70;;
11731;SDS011;5922;53.734;10.258;2023-02-04T06:50:49;2.20;;;2.00;;
11731;SDS011;5922;53.734;10.258;2023-02-04T06:53:16;4.40;;;1.93;;
11731;SDS011;5922;53.734;10.258;2023-02-04T06:55:44;2.90;;;2.10;;
11731;SDS011;5922;53.734;10.258;2023-02-04T06:58:11;3.87;;;2.10;;
11731;SDS011;5922;53.734;10.258;2023-02-04T07:00:40;4.23;;;2.00;;
11731;SDS011;5922;53.734;10.258;2023-02-04T07:03:07;2.93;;;2.10;;
11731;SDS011;5922;53.734;10.258;2023-02-04T07:05:38;5.20;;;2.50;;
11731;SDS011;5922;53.734;10.258;2023-02-04T07:08:05;4.03;;;1.90;;
11731;SDS011;5922;53.734;10.258;2023-02-04T07:10:32;3.60;;;1.90;;
11731;SDS011;5922;53.734;10.258;2023-02-04T07:12:59;2.37;;;2.00;;
11731;SDS011;5922;53.734;10.258;2023-02-04T07:15:27;3.40;;;2.33;;
11731;SDS011;5922;53.734;10.258;2023-02-04T07:18:01;3.23;;;2.33;;
11731;SDS011;5922;53.734;10.258;2023-02-04T07:20:28;2.37;;;2.00;;
11731;SDS011;5922;53.734;10.258;2023-02-04T07:22:55;3.33;;;2.30;;
11731;SDS011;5922;53.734;10.258;2023-02-04T07:25:22;6.70;;;2.27;;
11731;SDS011;5922;53.734;10.258;2023-02-04T07:27:50;3.80;;;2.27;;
11731;SDS011;5922;53.734;10.258;2023-02-04T07:30:17;2.30;;;2.10;;
11731;SDS011;5922;53.734;10.258;2023-02-04T07:32:44;3.00;;;2.30;;
11731;SDS011;5922;53.734;10.258;2023-02-04T07:35:13;3.67;;;2.10;;
11731;SDS011;5922;53.734;10.258;2023-02-04T07:37:47;4.07;;;2.47;;
11731;SDS011;5922;53.734;10.258;2023-02-04T07:40:25;2.97;;;2.47;;
11731;SDS011;5922;53.734;10.258;2023-02-04T07:42:52;3.03;;;2.17;;
11731;SDS011;5922;53.734;10.258;2023-02-04T07:45:19;2.60;;;2.20;;
11731;SDS011;5922;53.734;10.258;2023-02-04T07:47:46;2.83;;;2.40;;
11731;SDS011;5922;53.734;10.258;2023-02-04T07:50:18;2.93;;;2.30;;
11731;SDS011;5922;53.734;10.258;2023-02-04T07:52:46;5.37;;;2.67;;
11731;SDS011;5922;53.734;10.258;2023-02-04T07:55:13;3.67;;;2.30;;
11731;SDS011;5922;53.734;10.258;2023-02-04T07:57:41;3.00;;;2.60;;
11731;SDS011;5922;53.734;10.258;2023-02-04T08:00:10;2.70;;;2.50;;
11731;SDS011;5922;53.734;10.258;2023-02-04T08:02:38;2.33;;;2.13;;
11731;SDS011;5922;53.734;10.258;2023-02-04T08:05:06;3.23;;;2.53;;
11731;SDS011;5922;53.734;10.258;2023-02-04T08:07:35;2.70;;;2.30;;
11731;SDS011;5922;53.734;10.258;2023-02-04T08:10:03;3.10;;;2.80;;
11731;SDS011;5922;53.734;10.258;2023-02-04T08:12:30;3.20;;;2.90;;
11731;SDS011;5922;53.734;10.258;2023-02-04T08:14:57;3.27;;;2.97;;
11731;SDS011;5922;53.734;10.258;2023-02-04T08:17:25;3.87;;;3.23;;
11731;SDS011;5922;53.734;10.258;2023-02-04T08:19:52;5.37;;;3.50;;
11731;SDS011;5922;53.734;10.258;2023-02-04T08:22:20;3.80;;;3.50;;
11731;SDS011;5922;53.734;10.258;2023-02-04T08:24:49;4.33;;;3.77;;
11731;SDS011;5922;53.734;10.258;2023-02-04T08:27:18;4.23;;;3.43;;
11731;SDS011;5922;53.734;10.258;2023-02-04T08:29:49;3.90;;;3.00;;
11731;SDS011;5922;53.734;10.258;2023-02-04T08:32:16;5.57;;;3.10;;
11731;SDS011;5922;53.734;10.258;2023-02-04T08:34:43;5.03;;;3.20;;
11731;SDS011;5922;53.734;10.258;2023-02-04T08:37:12;10.27;;;6.23;;
11731;SDS011;5922;53.734;10.258;2023-02-04T08:39:40;13.67;;;8.33;;
11731;SDS011;5922;53.734;10.258;2023-02-04T08:42:14;7.80;;;4.27;;
11731;SDS011;5922;53.734;10.258;2023-02-04T08:44:41;5.73;;;3.70;;
11731;SDS011;5922;53.734;10.258;2023-02-04T08:47:09;5.33;;;3.87;;
11731;SDS011;5922;53.734;10.258;2023-02-04T08:49:36;6.60;;;4.57;;
11731;SDS011;5922;53.734;10.258;2023-02-04T08:52:04;5.23;;;3.00;;
11731;SDS011;5922;53.734;10.258;2023-02-04T08:54:32;4.47;;;2.60;;
11731;SDS011;5922;53.734;10.258;2023-02-04T08:56:59;3.77;;;2.20;;
11731;SDS011;5922;53.734;10.258;2023-02-04T08:59:28;2.80;;;2.30;;
11731;SDS011;5922;53.734;10.258;2023-02-04T09:01:55;2.07;;;1.80;;
11731;SDS011;5922;53.734;10.258;2023-02-04T09:04:24;3.53;;;2.23;;
11731;SDS011;5922;53.734;10.258;2023-02-04T09:06:52;3.10;;;2.03;;
11731;SDS011;5922;53.734;10.258;2023-02-04T09:09:19;2.10;;;1.90;;
11731;SDS011;5922;53.734;10.258;2023-02-04T09:11:47;2.70;;;1.97;;
11731;SDS011;5922;53.734;10.258;2023-02-04T09:14:14;2.33;;;2.07;;
11731;SDS011;5922;53.734;10.258;2023-02-04T09:16:45;2.27;;;1.90;;
11731;SDS011;5922;53.734;10.258;2023-02-04T09:19:13;2.97;;;2.07;;
11731;SDS011;5922;53.734;10.258;2023-02-04T09:21:43;2.77;;;2.33;;
11731;SDS011;5922;53.734;10.258;2023-02-04T09:24:10;4.20;;;2.37;;
11731;SDS011;5922;53.734;10.258;2023-02-04T09:26:37;2.93;;;2.30;;
11731;SDS011;5922;53.734;10.258;2023-02-04T09:29:07;3.07;;;1.90;;
11731;SDS011;5922;53.734;10.258;2023-02-04T09:31:34;3.23;;;1.93;;
11731;SDS011;5922;53.734;10.258;2023-02-04T09:34:04;3.10;;;2.00;;
11731;SDS011;5922;53.734;10.258;2023-02-04T09:36:31;4.80;;;1.90;;
11731;SDS011;5922;53.734;10.258;2023-02-04T09:39:02;2.83;;;1.90;;
11731;SDS011;5922;53.734;10.258;2023-02-04T09:41:30;4.10;;;2.20;;
11731;SDS011;5922;53.734;10.258;2023-02-04T09:43:57;2.00;;;1.87;;
11731;SDS011;5922;53.734;10.258;2023-02-04T09:46:27;4.07;;;1.80;;
11731;SDS011;5922;53.734;10.258;2023-02-04T09:48:56;3.67;;;2.10;;
11731;SDS011;5922;53.734;10.258;2023-02-04T09:51:26;3.13;;;1.80;;
11731;SDS011;5922;53.734;10.258;2023-02-04T09:53:57;3.30;;;2.00;;
11731;SDS011;5922;53.734;10.258;2023-02-04T09:56:29;4.17;;;2.43;;
11731;SDS011;5922;53.734;10.258;2023-02-04T09:58:56;3.30;;;2.20;;
11731;SDS011;5922;53.734;10.258;2023-02-04T10:01:25;3.13;;;1.90;;
11731;SDS011;5922;53.734;10.258;2023-02-04T10:03:58;3.03;;;1.90;;
11731;SDS011;5922;53.734;10.258;2023-02-04T10:06:28;4.00;;;1.97;;
11731;SDS011;5922;53.734;10.258;2023-02-04T10:08:56;2.20;;;1.70;;
11731;SDS011;5922;53.734;10.258;2023-02-04T10:11:36;2.43;;;1.67;;
11731;SDS011;5922;53.734;10.258;2023-02-04T10:14:15;3.37;;;1.57;;
11731;SDS011;5922;53.734;10.258;2023-02-04T10:16:49;3.97;;;2.00;;
11731;SDS011;5922;53.734;10.258;2023-02-04T10:19:23;2.73;;;2.30;;
11731;SDS011;5922;53.734;10.258;2023-02-04T10:21:58;2.63;;;1.90;;
11731;SDS011;5922;53.734;10.258;2023-02-04T10:24:25;3.00;;;2.10;;
11731;SDS011;5922;53.734;10.258;2023-02-04T10:27:07;3.67;;;2.10;;
11731;SDS011;5922;53.734;10.258;2023-02-04T10:29:42;2.17;;;1.70;;
11731;SDS011;5922;53.734;10.258;2023-02-04T10:32:27;2.23;;;1.90;;
11731;SDS011;5922;53.734;10.258;2023-02-04T10:34:56;6.83;;;1.80;;
11731;SDS011;5922;53.734;10.258;2023-02-04T10:37:25;2.40;;;1.90;;
11731;SDS011;5922;53.734;10.258;2023-02-04T10:39:53;3.87;;;1.93;;
11731;SDS011;5922;53.734;10.258;2023-02-04T10:42:36;4.97;;;1.93;;
11731;SDS011;5922;53.734;10.258;2023-02-04T10:45:21;2.30;;;1.70;;
11731;SDS011;5922;53.734;10.258;2023-02-04T10:47:49;5.63;;;1.73;;
11731;SDS011;5922;53.734;10.258;2023-02-04T10:50:22;2.57;;;1.87;;
11731;SDS011;5922;53.734;10.258;2023-02-04T10:52:56;1.83;;;1.60;;
11731;SDS011;5922;53.734;10.258;2023-02-04T10:55:38;2.13;;;1.40;;
11731;SDS011;5922;53.734;10.258;2023-02-04T10:58:10;6.23;;;2.00;;
11731;SDS011;5922;53.734;10.258;2023-02-04T11:00:38;1.70;;;1.60;;
11731;SDS011;5922;53.734;10.258;2023-02-04T11:03:10;3.37;;;1.80;;
11731;SDS011;5922;53.734;10.258;2023-02-04T11:05:52;3.27;;;2.00;;
11731;SDS011;5922;53.734;10.258;2023-02-04T11:08:29;1.90;;;1.47;;
11731;SDS011;5922;53.734;10.258;2023-02-04T11:11:01;1.40;;;1.30;;
11731;SDS011;5922;53.734;10.258;2023-02-04T11:13:38;1.50;;;1.40;;
11731;SDS011;5922;53.734;10.258;2023-02-04T11:16:10;2.07;;;1.60;;
11731;SDS011;5922;53.734;10.258;2023-02-04T11:21:26;3.57;;;1.53;;
11731;SDS011;5922;53.734;10.258;2023-02-04T11:24:04;2.07;;;1.30;;
11731;SDS011;5922;53.734;10.258;2023-02-04T11:26:33;1.97;;;1.43;;
11731;SDS011;5922;53.734;10.258;2023-02-04T11:29:08;1.97;;;1.37;;
11731;SDS011;5922;53.734;10.258;2023-02-04T11:31:43;2.73;;;1.30;;
11731;SDS011;5922;53.734;10.258;2023-02-04T11:34:26;3.93;;;2.00;;
11731;SDS011;5922;53.734;10.258;2023-02-04T11:37:02;3.27;;;1.70;;
11731;SDS011;5922;53.734;10.258;2023-02-04T11:39:34;2.80;;;1.40;;
11731;SDS011;5922;53.734;10.258;2023-02-04T11:42:02;2.87;;;1.90;;
11731;SDS011;5922;53.734;10.258;2023-02-04T11:44:30;2.67;;;1.60;;
11731;SDS011;5922;53.734;10.258;2023-02-04T11:46:57;2.90;;;1.70;;
11731;SDS011;5922;53.734;10.258;2023-02-04T11:49:25;2.20;;;1.33;;
11731;SDS011;5922;53.734;10.258;2023-02-04T11:52:01;1.90;;;1.50;;
11731;SDS011;5922;53.734;10.258;2023-02-04T11:54:34;1.53;;;1.30;;
11731;SDS011;5922;53.734;10.258;2023-02-04T11:57:01;3.33;;;2.40;;
11731;SDS011;5922;53.734;10.258;2023-02-04T11:59:28;1.93;;;1.60;;
11731;SDS011;5922;53.734;10.258;2023-02-04T12:02:03;2.83;;;1.80;;
11731;SDS011;5922;53.734;10.258;2023-02-04T12:04:30;2.83;;;1.50;;
11731;SDS011;5922;53.734;10.258;2023-02-04T12:06:58;1.70;;;1.50;;
11731;SDS011;5922;53.734;10.258;2023-02-04T12:09:26;3.80;;;1.90;;
11731;SDS011;5922;53.734;10.258;2023-02-04T12:11:56;3.23;;;1.80;;
11731;SDS011;5922;53.734;10.258;2023-02-04T12:14:27;2.57;;;1.17;;
11731;SDS011;5922;53.734;10.258;2023-02-04T12:16:54;3.73;;;1.70;;
11731;SDS011;5922;53.734;10.258;2023-02-04T12:19:22;3.07;;;1.90;;
11731;SDS011;5922;53.734;10.258;2023-02-04T12:21:49;6.30;;;3.60;;
11731;SDS011;5922;53.734;10.258;2023-02-04T12:24:16;4.13;;;2.50;;
11731;SDS011;5922;53.734;10.258;2023-02-04T12:26:43;3.47;;;2.57;;
11731;SDS011;5922;53.734;10.258;2023-02-04T12:29:12;2.30;;;2.00;;
11731;SDS011;5922;53.734;10.258;2023-02-04T12:31:39;4.53;;;2.50;;
11731;SDS011;5922;53.734;10.258;2023-02-04T12:34:06;3.80;;;2.90;;
11731;SDS011;5922;53.734;10.258;2023-02-04T12:36:33;9.07;;;5.10;;
11731;SDS011;5922;53.734;10.258;2023-02-04T12:39:05;3.93;;;2.57;;
11731;SDS011;5922;53.734;10.258;2023-02-04T12:41:32;3.00;;;1.70;;
11731;SDS011;5922;53.734;10.258;2023-02-04T12:43:59;5.57;;;2.97;;
11731;SDS011;5922;53.734;10.258;2023-02-04T12:46:31;1.53;;;1.43;;
11731;SDS011;5922;53.734;10.258;2023-02-04T12:48:58;1.97;;;1.27;;
11731;SDS011;5922;53.734;10.258;2023-02-04T12:51:26;2.27;;;1.87;;
11731;SDS011;5922;53.734;10.258;2023-02-04T12:53:53;2.67;;;1.40;;
11731;SDS011;5922;53.734;10.258;2023-02-04T12:56:20;1.83;;;1.43;;
11731;SDS011;5922;53.734;10.258;2023-02-04T12:58:48;1.50;;;1.40;;
11731;SDS011;5922;53.734;10.258;2023-02-04T13:01:15;3.63;;;1.70;;
11731;SDS011;5922;53.734;10.258;2023-02-04T13:03:44;3.27;;;2.60;;
11731;SDS011;5922;53.734;10.258;2023-02-04T13:06:11;5.70;;;3.50;;
11731;SDS011;5922;53.734;10.258;2023-02-04T13:08:38;5.60;;;1.33;;
11731;SDS011;5922;53.734;10.258;2023-02-04T13:11:05;3.83;;;1.70;;
11731;SDS011;5922;53.734;10.258;2023-02-04T13:13:33;1.53;;;1.30;;
11731;SDS011;5922;53.734;10.258;2023-02-04T13:16:00;2.80;;;1.93;;
11731;SDS011;5922;53.734;10.258;2023-02-04T13:18:27;2.77;;;1.60;;
11731;SDS011;5922;53.734;10.258;2023-02-04T13:20:56;2.17;;;1.20;;
11731;SDS011;5922;53.734;10.258;2023-02-04T13:23:23;1.87;;;1.50;;
11731;SDS011;5922;53.734;10.258;2023-02-04T13:25:50;1.53;;;1.43;;
11731;SDS011;5922;53.734;10.258;2023-02-04T13:28:17;2.03;;;1.20;;
11731;SDS011;5922;53.734;10.258;2023-02-04T13:30:45;2.80;;;1.37;;
11731;SDS011;5922;53.734;10.258;2023-02-04T13:33:12;1.83;;;1.40;;
11731;SDS011;5922;53.734;10.258;2023-02-04T13:35:40;2.67;;;1.30;;
11731;SDS011;5922;53.734;10.258;2023-02-04T13:38:10;1.77;;;1.20;;
11731;SDS011;5922;53.734;10.258;2023-02-04T13:40:38;1.83;;;1.23;;
11731;SDS011;5922;53.734;10.258;2023-02-04T13:43:05;1.40;;;1.10;;
11731;SDS011;5922;53.734;10.258;2023-02-04T13:45:32;1.63;;;1.40;;
11731;SDS011;5922;53.734;10.258;2023-02-04T13:47:59;2.30;;;1.30;;
11731;SDS011;5922;53.734;10.258;2023-02-04T13:50:27;1.80;;;1.40;;
11731;SDS011;5922;53.734;10.258;2023-02-04T13:52:54;5.57;;;1.40;;
11731;SDS011;5922;53.734;10.258;2023-02-04T13:55:23;2.63;;;1.30;;
11731;SDS011;5922;53.734;10.258;2023-02-04T13:57:50;2.80;;;1.27;;
11731;SDS011;5922;53.734;10.258;2023-02-04T14:00:17;1.70;;;1.27;;
11731;SDS011;5922;53.734;10.258;2023-02-04T14:02:44;2.27;;;1.37;;
11731;SDS011;5922;53.734;10.258;2023-02-04T14:05:12;2.97;;;1.67;;
11731;SDS011;5922;53.734;10.258;2023-02-04T14:07:40;1.57;;;1.20;;
11731;SDS011;5922;53.734;10.258;2023-02-04T14:10:07;1.93;;;1.30;;
11731;SDS011;5922;53.734;10.258;2023-02-04T14:12:36;1.73;;;1.43;;
11731;SDS011;5922;53.734;10.258;2023-02-04T14:15:04;2.00;;;1.47;;
11731;SDS011;5922;53.734;10.258;2023-02-04T14:17:32;1.77;;;1.40;;
11731;SDS011;5922;53.734;10.258;2023-02-04T14:19:59;1.93;;;1.40;;
11731;SDS011;5922;53.734;10.258;2023-02-04T14:22:27;4.03;;;2.03;;
11731;SDS011;5922;53.734;10.258;2023-02-04T14:24:54;3.60;;;3.23;;
11731;SDS011;5922;53.734;10.258;2023-02-04T14:27:21;1.50;;;1.40;;
11731;SDS011;5922;53.734;10.258;2023-02-04T14:29:50;5.40;;;2.30;;
11731;SDS011;5922;53.734;10.258;2023-02-04T14:32:17;2.07;;;1.73;;
11731;SDS011;5922;53.734;10.258;2023-02-04T14:34:44;5.17;;;3.10;;
11731;SDS011;5922;53.734;10.258;2023-02-04T14:37:12;4.23;;;3.07;;
11731;SDS011;5922;53.734;10.258;2023-02-04T14:39:39;2.77;;;2.37;;
11731;SDS011;5922;53.734;10.258;2023-02-04T14:42:06;3.17;;;2.53;;
11731;SDS011;5922;53.734;10.258;2023-02-04T14:44:33;2.87;;;1.70;;
11731;SDS011;5922;53.734;10.258;2023-02-04T14:47:02;3.57;;;2.03;;
11731;SDS011;5922;53.734;10.258;2023-02-04T14:49:29;3.40;;;1.50;;
11731;SDS011;5922;53.734;10.258;2023-02-04T14:51:57;2.77;;;1.60;;
11731;SDS011;5922;53.734;10.258;2023-02-04T14:54:24;1.97;;;1.40;;
11731;SDS011;5922;53.734;10.258;2023-02-04T14:56:51;1.53;;;1.43;;
11731;SDS011;5922;53.734;10.258;2023-02-04T14:59:18;1.60;;;1.50;;
11731;SDS011;5922;53.734;10.258;2023-02-04T15:01:45;1.70;;;1.10;;
11731;SDS011;5922;53.734;10.258;2023-02-04T15:04:14;2.70;;;2.00;;
11731;SDS011;5922;53.734;10.258;2023-02-04T15:06:42;2.03;;;1.43;;
11731;SDS011;5922;53.734;10.258;2023-02-04T15:09:10;2.80;;;1.50;;
11731;SDS011;5922;53.734;10.258;2023-02-04T15:11:37;3.17;;;1.80;;
11731;SDS011;5922;53.734;10.258;2023-02-04T15:14:04;16.73;;;9.60;;
11731;SDS011;5922;53.734;10.258;2023-02-04T15:16:31;21.43;;;12.93;;
11731;SDS011;5922;53.734;10.258;2023-02-04T15:18:59;26.90;;;14.60;;
11731;SDS011;5922;53.734;10.258;2023-02-04T15:21:27;34.23;;;15.43;;
11731;SDS011;5922;53.734;10.258;2023-02-04T15:23:55;14.50;;;8.93;;
11731;SDS011;5922;53.734;10.258;2023-02-04T15:26:22;8.73;;;4.57;;